Time;durP1;ratioP1;P1;durP2;ratioP2;P2;SDS_P1;SDS_P2;PMS_P1;PMS_P2;Temp;Humidity;BMP_temperature;BMP_pressure;BME280_temperature;BME280_humidity;BME280_pressure;Samples;Min_cycle;Max_cycle;Signal;HPM_P1;HPM_P2
2021/09/04 00:00:11;;;;;;;14.98;9.65;;;;;;;12.97;71.10;100403.34;1659527;85;26566;-64
2021/09/04 00:02:39;;;;;;;18.07;10.08;;;;;;;12.94;71.22;100410.23;1640832;86;26086;-63
2021/09/04 00:05:08;;;;;;;17.00;10.00;;;;;;;12.89;71.54;100409.03;1669134;84;27584;-63
2021/09/04 00:07:34;;;;;;;15.68;9.90;;;;;;;12.85;71.63;100408.85;1672679;84;26110;-64
2021/09/04 00:10:00;;;;;;;15.03;8.48;;;;;;;12.81;71.36;100409.84;1664922;84;26150;-64
2021/09/04 00:12:28;;;;;;;14.05;9.08;;;;;;;12.78;71.50;100414.55;1671280;83;26196;-63
2021/09/04 00:14:56;;;;;;;14.58;8.33;;;;;;;12.74;71.87;100419.03;1665479;84;25955;-64
2021/09/04 00:17:23;;;;;;;14.28;9.25;;;;;;;12.68;71.71;100425.16;1673821;83;27520;-64
2021/09/04 00:19:49;;;;;;;21.85;9.13;;;;;;;12.65;71.98;100427.97;1669431;84;26026;-64
2021/09/04 00:22:16;;;;;;;13.43;9.03;;;;;;;12.62;71.96;100429.95;1662975;84;25733;-64
2021/09/04 00:24:42;;;;;;;16.80;9.33;;;;;;;12.59;72.08;100425.73;1670368;84;25944;-64
2021/09/04 00:27:08;;;;;;;14.75;8.88;;;;;;;12.55;72.28;100427.47;1670219;84;26011;-64
2021/09/04 00:29:36;;;;;;;14.98;8.90;;;;;;;12.52;72.46;100432.42;1667832;83;27484;-64
2021/09/04 05:32:41;;;;;;;12.85;5.95;;;;;;;10.05;79.98;100604.59;1727548;80;25841;-64
2021/09/04 05:35:10;;;;;;;12.28;5.75;;;;;;;10.19;79.96;100601.90;1762017;80;27560;-63
2021/09/04 05:37:39;;;;;;;9.50;5.33;;;;;;;10.31;80.02;100602.77;1792469;79;26372;-63
2021/09/04 05:40:18;;;;;;;12.50;5.75;;;;;;;10.42;79.97;100603.66;1754625;80;26007;-64
2021/09/04 05:43:11;;;;;;;8.58;4.60;;;;;;;10.55;79.97;100606.09;1768032;79;25723;-63
2021/09/04 05:45:48;;;;;;;10.10;4.85;;;;;;;10.69;79.90;100602.59;1670831;84;26594;-64
2021/09/04 05:48:59;;;;;;;7.87;4.42;;;;;;;10.84;80.02;100603.09;1559903;91;26545;-64
2021/09/04 05:52:10;;;;;;;;;;;;;;;;;;;;;
2021/09/04 05:55:07;;;;;;;;;;;;;;;;;;;;;
2021/09/04 05:58:02;;;;;;;8.93;4.87;;;;;;;11.32;79.77;100613.95;1501860;93;25950;-64
2021/09/04 06:01:18;;;;;;;5.47;3.17;;;;;;;11.47;79.40;100606.58;1495711;94;25851;-63
2021/09/04 06:04:20;;;;;;;9.63;3.80;;;;;;;11.63;79.06;100612.41;1348773;105;26347;-64
2021/09/04 06:07:30;;;;;;;;;;;;;;;;;;;;;
2021/09/04 06:10:11;;;;;;;6.08;3.95;;;;;;;12.06;79.17;100606.52;1348822;104;26081;-63
2021/09/04 06:13:08;;;;;;;;;;;;;;;;;;;;;
2021/09/04 06:16:05;;;;;;;;;;;;;;;;;;;;;
2021/09/04 09:01:47;;;;;;;;;;;;;;;;;;;;;
2021/09/04 09:04:48;;;;;;;;;;;;;;;;;;;;;
2021/09/04 09:27:52;;;;;;;1.92;0.80;;;;;;;28.14;31.66;100678.66;1542266;91;26065;-63
2021/09/04 09:30:28;;;;;;;1.90;0.80;;;;;;;28.51;31.32;100680.43;1541397;91;25914;-63
2021/09/04 09:32:55;;;;;;;3.83;0.78;;;;;;;28.63;30.52;100677.67;1544689;91;25794;-62
2021/09/04 09:35:44;;;;;;;1.37;0.80;;;;;;;28.63;30.39;100680.46;1545413;91;26646;-63
2021/09/04 09:38:15;;;;;;;2.17;0.55;;;;;;;28.72;29.83;100682.69;1534153;91;25930;-63
2021/09/04 09:40:43;;;;;;;1.95;0.93;;;;;;;28.94;30.05;100688.66;1604550;86;27150;-63
2021/09/04 09:43:23;;;;;;;1.72;0.78;;;;;;;29.09;29.18;100680.82;1626559;87;26155;-64
2021/09/04 09:46:00;;;;;;;4.08;1.07;;;;;;;29.16;29.07;100677.12;1762280;80;26388;-63
2021/09/04 09:48:35;;;;;;;1.30;0.75;;;;;;;29.20;29.08;100691.77;1773615;80;25680;-63
2021/09/04 10:38:22;;;;;;;2.05;0.60;;;;;;;31.35;24.63;100687.91;1624903;87;26387;-62
2021/09/04 10:40:52;;;;;;;1.42;0.85;;;;;;;31.43;24.57;100685.86;1650686;85;25783;-62
2021/09/04 10:43:20;;;;;;;0.78;0.72;;;;;;;31.43;24.33;100697.63;1634711;86;27600;-62
2021/09/04 10:53:58;;;;;;;0.95;0.70;;;;;;;30.76;24.63;100700.44;1639668;83;25770;-62
2021/09/04 10:56:44;;;;;;;1.77;0.90;;;;;;;30.84;24.85;100697.63;1720475;83;25766;-62
2021/09/04 10:59:12;;;;;;;0.90;0.78;;;;;;;30.82;24.08;100702.88;1720618;83;27615;-62
2021/09/04 11:01:48;;;;;;;3.27;0.80;;;;;;;30.43;24.01;100702.50;1720862;83;26358;-62
2021/09/04 11:04:15;;;;;;;1.20;0.80;;;;;;;29.70;23.59;100704.69;1720611;83;25715;-62
2021/09/04 11:06:49;;;;;;;2.90;1.07;;;;;;;28.99;24.57;100699.91;1720572;83;26382;-62
2021/09/04 11:09:17;;;;;;;0.88;0.72;;;;;;;28.99;24.52;100692.95;1719345;83;25799;-62
2021/09/04 11:15:54;;;;;;;2.65;0.90;;;;;;;28.84;24.52;100692.42;1657206;82;26881;-63
2021/09/04 11:18:21;;;;;;;1.30;1.10;;;;;;;28.88;24.78;100695.33;1655278;86;25760;-63
2021/09/04 11:20:53;;;;;;;3.85;1.07;;;;;;;28.86;24.72;100692.77;1634458;86;25959;-63
2021/09/04 11:23:27;;;;;;;1.25;0.80;;;;;;;28.78;25.20;100687.96;1655303;86;25789;-63
2021/09/04 11:25:55;;;;;;;6.28;4.55;;;;;;;28.63;24.51;100692.98;1654321;84;27532;-63
2021/09/04 11:28:33;;;;;;;2.05;1.47;;;;;;;28.50;24.75;100687.81;1655296;86;25729;-63
2021/09/04 11:31:00;;;;;;;1.25;0.80;;;;;;;28.44;24.34;100684.73;1655430;86;25736;-63
2021/09/04 11:33:28;;;;;;;1.65;0.98;;;;;;;28.19;24.62;100690.69;1652578;85;25706;-63
2021/09/04 11:35:55;;;;;;;2.12;1.05;;;;;;;28.21;24.73;100687.48;1655410;86;25698;-63
2021/09/04 11:38:24;;;;;;;1.30;1.20;;;;;;;28.31;24.34;100683.14;1632312;86;27464;-63
2021/09/04 11:40:52;;;;;;;2.37;1.05;;;;;;;28.53;24.91;100682.80;1655244;86;25752;-63
2021/09/04 11:43:26;;;;;;;4.97;0.80;;;;;;;28.85;24.79;100680.09;1679563;85;26429;-63
2021/09/04 11:46:05;;;;;;;1.45;1.10;;;;;;;29.08;24.69;100685.42;1680849;85;26553;-63
2021/09/04 11:51:57;;;;;;;2.00;0.70;;;;;;;29.33;24.35;100695.49;1657607;81;25941;-62
2021/09/04 11:54:29;;;;;;;1.70;1.00;;;;;;;29.59;24.41;100697.95;1645257;85;26059;-62
2021/09/04 11:56:56;;;;;;;1.62;1.00;;;;;;;29.72;23.78;100695.28;1645480;85;25936;-62
2021/09/04 11:59:22;;;;;;;2.15;1.05;;;;;;;29.65;23.60;100703.02;1651341;85;25820;-62
2021/09/04 12:01:49;;;;;;;2.22;1.00;;;;;;;29.71;24.14;100699.89;1669486;85;25851;-62
2021/09/04 12:04:15;;;;;;;2.10;1.10;;;;;;;29.78;23.63;100690.80;1629228;85;27615;-61
2021/09/04 12:06:47;;;;;;;2.08;1.30;;;;;;;30.03;24.11;100688.05;1627528;86;25788;-62
2021/09/04 12:09:15;;;;;;;1.80;1.40;;;;;;;30.26;23.51;100692.69;1645541;85;26439;-62
2021/09/04 12:11:42;;;;;;;3.42;1.70;;;;;;;30.29;23.50;100696.59;1650374;85;25834;-62
2021/09/04 12:14:09;;;;;;;2.95;1.52;;;;;;;29.94;23.16;100692.83;1655766;85;26068;-62
2021/09/04 12:16:36;;;;;;;3.30;1.25;;;;;;;29.42;23.57;100690.15;1692491;84;29749;-62
2021/09/04 12:19:17;;;;;;;1.42;1.00;;;;;;;29.31;23.91;100686.02;1682864;84;25802;-63
2021/09/04 12:21:50;;;;;;;2.12;1.10;;;;;;;29.35;23.99;100684.70;1680029;83;25855;-64
2021/09/04 13:00:54;;;;;;;4.33;1.15;;;;;;;27.48;24.43;100697.41;1675055;82;25564;-55
2021/09/04 13:03:21;;;;;;;2.95;1.10;;;;;;;27.52;24.92;100698.75;1683609;84;28094;-57
2021/09/04 13:05:48;;;;;;;2.47;0.98;;;;;;;27.69;25.33;100689.39;1681766;84;25820;-57
2021/09/04 13:08:14;;;;;;;1.90;0.95;;;;;;;27.84;25.01;100691.37;1678877;84;25769;-57
2021/09/04 13:11:02;;;;;;;2.50;1.00;;;;;;;27.68;24.88;100685.03;1665631;82;26824;31
2021/09/04 13:13:29;;;;;;;1.87;0.85;;;;;;;27.68;25.17;100690.58;1631010;87;25585;-56
2021/09/04 13:15:55;;;;;;;1.72;0.90;;;;;;;27.79;24.98;100697.41;1630325;88;27577;-56
2021/09/04 13:18:23;;;;;;;2.02;0.93;;;;;;;27.95;24.95;100695.42;1630208;88;25623;-56
2021/09/04 13:20:50;;;;;;;1.55;1.00;;;;;;;28.02;24.66;100694.53;1630276;88;25639;-56
2021/09/04 13:27:24;;;;;;;4.25;0.90;;;;;;;28.03;24.67;100688.55;1725819;83;25378;-52
2021/09/04 13:48:09;;;;;;;2.95;1.10;;;;;;;27.13;25.50;100687.47;1726564;82;25768;-64
2021/09/04 13:50:39;;;;;;;2.22;1.10;;;;;;;26.88;25.91;100694.66;1745152;81;25622;-64
2021/09/04 13:53:05;;;;;;;3.77;1.70;;;;;;;26.72;25.96;100684.12;1766543;81;26008;-63
2021/09/04 13:55:32;;;;;;;4.60;1.62;;;;;;;26.51;26.37;100688.63;1791861;79;25716;-56
2021/09/04 13:57:58;;;;;;;3.72;1.60;;;;;;;26.41;26.35;100690.28;1793368;79;27421;-64
2021/09/04 14:00:25;;;;;;;2.45;1.10;;;;;;;26.36;26.22;100684.39;1790438;80;25592;-63
2021/09/04 14:02:51;;;;;;;4.72;1.10;;;;;;;26.20;26.25;100688.44;1794571;79;26095;-63
2021/09/04 14:05:18;;;;;;;3.92;2.02;;;;;;;26.07;26.35;100692.30;1789816;79;25419;-62
2021/09/04 14:11:37;;;;;;;2.05;1.20;;;;;;;25.64;27.01;100695.29;1660507;83;25747;-55
2021/09/04 14:38:26;;;;;;;5.42;1.57;;;;;;;24.33;28.76;100690.91;1689782;80;25875;-53
2021/09/04 14:40:53;;;;;;;3.90;1.90;;;;;;;24.14;28.35;100696.22;1695963;83;27393;-55
2021/09/04 14:43:19;;;;;;;2.02;1.40;;;;;;;23.98;28.53;100695.98;1742144;81;25791;-55
2021/09/04 14:51:13;;;;;;;1.87;1.00;;;;;;;23.59;28.36;100682.81;1711858;81;25961;-60
2021/09/04 14:53:40;;;;;;;2.95;1.10;;;;;;;23.55;28.57;100683.97;1720832;81;27379;-59
2021/09/04 14:56:07;;;;;;;1.98;1.10;;;;;;;23.52;28.74;100693.05;1691560;84;25633;-59
2021/09/04 14:58:33;;;;;;;1.62;1.10;;;;;;;23.45;29.15;100692.43;1692285;84;25551;-61
2021/09/04 15:08:01;;;;;;;1.90;1.30;;;;;;;22.96;29.22;100695.08;1701582;81;27346;-59
2021/09/04 15:13:31;;;;;;;2.05;1.10;;;;;;;22.67;30.12;100692.11;1716533;81;25757;-60
2021/09/04 15:15:58;;;;;;;;;;;;;;;22.54;30.47;100691.59;1765905;80;25451;-58
2021/09/04 15:25:12;;;;;;;4.35;1.17;;;;;;;22.20;30.45;100699.36;1692861;82;27368;-53
2021/09/04 15:27:40;;;;;;;2.67;1.17;;;;;;;21.99;30.73;100702.66;1706526;83;25460;-53
2021/09/04 15:30:09;;;;;;;3.08;1.45;;;;;;;21.86;30.98;100699.95;1777566;79;25605;-54
2021/09/04 15:35:44;;;;;;;5.20;1.20;;;;;;;21.68;31.70;100695.63;1718453;81;32799;-51
2021/09/04 15:38:12;;;;;;;2.67;1.07;;;;;;;21.53;31.53;100698.78;1734714;81;25874;-52
2021/09/04 15:40:39;;;;;;;3.17;2.00;;;;;;;21.40;31.68;100698.22;1747801;81;25497;-53
2021/09/04 15:46:27;;;;;;;2.12;1.30;;;;;;;21.11;32.13;100702.50;1658885;82;25730;-59
2021/09/04 15:48:54;;;;;;;2.22;1.22;;;;;;;20.84;32.44;100697.58;1665937;85;27927;-59
2021/09/04 15:51:22;;;;;;;4.62;1.20;;;;;;;20.66;33.14;100699.47;1678583;84;25929;-60
2021/09/04 16:00:31;;;;;;;3.90;2.17;;;;;;;20.09;34.01;100694.32;1685267;81;25886;-48
2021/09/04 16:02:58;;;;;;;2.10;1.35;;;;;;;19.90;34.42;100703.38;1681618;84;27343;-50
2021/09/04 16:05:24;;;;;;;3.12;1.30;;;;;;;19.74;34.96;100705.63;1684256;83;27180;-48
2021/09/04 16:13:15;;;;;;;3.47;2.73;;;;;;;19.19;37.60;100701.50;1653918;83;25886;-49
2021/09/04 16:20:50;;;;;;;2.67;1.72;;;;;;;18.80;39.06;100710.16;1659025;85;30145;-58
2021/09/04 16:23:17;;;;;;;3.83;1.27;;;;;;;18.69;39.79;100707.72;1675534;85;25509;-58
2021/09/04 16:25:43;;;;;;;1.30;1.20;;;;;;;18.55;40.13;100700.73;1710928;83;25624;-58
2021/09/04 16:28:11;;;;;;;2.37;1.12;;;;;;;18.45;40.64;100701.27;1694861;83;27888;-57
2021/09/04 16:30:38;;;;;;;3.60;1.27;;;;;;;18.32;40.80;100707.41;1691847;83;25511;-58
2021/09/04 16:33:04;;;;;;;3.33;1.35;;;;;;;18.18;41.44;100701.54;1686386;83;25430;-59
2021/09/04 16:35:31;;;;;;;1.85;1.30;;;;;;;18.06;41.73;100705.92;1681718;83;25630;-58
2021/09/04 16:39:37;;;;;;;2.80;1.20;;;;;;;17.89;42.64;100705.68;1900752;74;25666;-58
2021/09/04 16:42:03;;;;;;;2.45;1.82;;;;;;;17.66;42.54;100710.85;1867608;76;25372;-58
2021/09/04 16:45:00;;;;;;;2.65;1.60;;;;;;;17.49;42.80;100700.98;1846465;75;27447;-47
2021/09/04 17:07:04;;;;;;;3.35;2.00;;;;;;;16.09;46.00;100718.86;1806680;74;27209;-58
2021/09/04 17:15:18;;;;;;;2.75;2.00;;;;;;;15.54;47.68;100716.08;1706446;81;26470;-59
2021/09/04 17:17:45;;;;;;;2.83;2.00;;;;;;;15.39;48.07;100716.13;1713431;81;25902;-59
2021/09/04 18:54:28;;;;;;;33.25;21.05;;;;;;;12.21;57.83;100814.11;1717234;78;27476;-60
2021/09/04 18:56:55;;;;;;;33.78;23.15;;;;;;;12.15;58.30;100821.57;1733932;80;25906;-61
2021/09/04 18:59:21;;;;;;;30.90;23.62;;;;;;;12.10;58.50;100831.17;1730882;80;25917;-62
2021/09/04 19:01:48;;;;;;;34.53;22.42;;;;;;;12.05;58.45;100829.38;1762142;80;27339;-70
2021/09/04 19:04:14;;;;;;;33.73;22.22;;;;;;;12.01;58.36;100827.59;1758172;80;25671;-66
2021/09/04 19:06:41;;;;;;;38.40;24.60;;;;;;;12.00;58.65;100831.41;1763867;80;27198;-63
2021/09/04 19:09:07;;;;;;;33.38;22.65;;;;;;;11.95;59.36;100830.95;1769144;79;25655;-62
2021/09/04 19:11:34;;;;;;;32.98;21.55;;;;;;;11.90;59.20;100837.28;1741634;81;25667;-61
2021/09/04 19:14:00;;;;;;;30.57;20.60;;;;;;;11.85;59.23;100837.92;1725559;81;25848;-62
2021/09/04 19:16:26;;;;;;;24.57;18.70;;;;;;;11.80;59.07;100835.32;1705190;82;26148;-62
2021/09/04 19:18:53;;;;;;;25.72;17.20;;;;;;;11.75;59.80;100832.98;1713583;82;27517;-62
2021/09/04 19:21:20;;;;;;;25.20;18.85;;;;;;;11.71;59.39;100836.59;1711225;81;25683;-62
2021/09/04 19:35:54;;;;;;;23.45;15.85;;;;;;;11.43;60.46;100857.50;1740646;80;26050;-62
2021/09/04 19:38:20;;;;;;;21.17;13.15;;;;;;;11.38;60.73;100849.70;1744889;80;26572;-63
2021/09/04 19:40:47;;;;;;;18.50;12.95;;;;;;;11.33;60.63;100856.57;1724810;80;25904;-63
2021/09/04 19:43:14;;;;;;;23.85;13.55;;;;;;;11.29;61.06;100855.58;1740417;80;25720;-61
2021/09/04 19:45:41;;;;;;;18.45;12.85;;;;;;;11.28;61.69;100859.94;1761100;80;27499;-63
2021/09/04 19:48:08;;;;;;;18.92;13.35;;;;;;;11.24;61.75;100857.56;1785977;78;25790;-65
2021/09/04 19:50:34;;;;;;;18.75;14.20;;;;;;;11.21;61.59;100855.70;1796622;78;25831;-63
2021/09/04 19:53:03;;;;;;;20.60;13.90;;;;;;;11.20;61.57;100860.89;1701886;82;25817;-64
2021/09/04 19:55:30;;;;;;;20.60;15.20;;;;;;;11.18;62.30;100864.98;1724624;80;25947;-62
2021/09/04 20:12:48;;;;;;;27.75;17.85;;;;;;;11.08;63.44;100888.97;1745024;80;25965;-61
2021/09/04 20:34:13;;;;;;;30.50;20.35;;;;;;;10.70;64.47;100903.95;1750375;78;25668;-59
2021/09/04 20:36:54;;;;;;;38.08;23.42;;;;;;;10.65;64.36;100911.59;1819392;77;25975;-60
2021/09/04 20:39:23;;;;;;;30.68;21.45;;;;;;;10.62;64.14;100908.14;1826480;77;26557;-60
2021/09/04 20:41:58;;;;;;;31.75;22.55;;;;;;;10.62;64.11;100918.97;1821245;77;27576;-62
2021/09/04 20:44:27;;;;;;;34.80;23.15;;;;;;;10.61;64.97;100917.34;1828215;77;25736;-62
2021/09/04 20:46:57;;;;;;;29.72;20.50;;;;;;;10.58;65.14;100926.60;1821095;77;25711;-62
2021/09/04 20:49:25;;;;;;;33.55;20.43;;;;;;;10.54;64.93;100923.68;1831895;77;26201;-61
2021/09/04 20:51:53;;;;;;;29.63;20.45;;;;;;;10.54;64.96;100915.56;1825171;77;25741;-61
2021/09/04 20:54:21;;;;;;;31.17;19.90;;;;;;;10.54;65.32;100917.45;1826654;77;32774;-62
2021/09/04 20:56:48;;;;;;;26.65;18.95;;;;;;;10.54;65.55;100912.86;1826357;77;25734;-61
2021/09/04 21:10:45;;;;;;;25.60;15.43;;;;;;;10.70;66.75;100930.21;1664385;85;25875;-61
2021/09/04 21:28:29;;;;;;;24.35;15.78;;;;;;;10.73;66.36;100952.63;1776185;79;26033;-60
2021/09/04 21:30:56;;;;;;;22.25;14.85;;;;;;;10.69;66.55;100951.59;1775609;79;25707;-61
2021/09/04 21:33:22;;;;;;;20.90;14.83;;;;;;;10.67;66.53;100957.30;1756222;79;25735;-61
2021/09/04 21:35:49;;;;;;;24.27;14.60;;;;;;;10.63;66.45;100950.31;1777260;79;28074;-61
2021/09/04 21:38:15;;;;;;;20.88;15.03;;;;;;;10.61;66.60;100959.28;1772323;79;25896;-62
2021/09/04 21:40:42;;;;;;;20.77;14.03;;;;;;;10.57;66.68;100957.44;1776864;79;25791;-62
2021/09/04 21:43:08;;;;;;;21.02;13.00;;;;;;;10.52;66.76;100953.45;1777588;80;25669;-61
2021/09/04 21:45:35;;;;;;;21.15;13.58;;;;;;;10.49;66.45;100960.80;1778623;79;25775;-61
2021/09/04 21:48:02;;;;;;;22.60;13.53;;;;;;;10.45;66.28;100957.88;1773501;80;27496;-61
2021/09/04 21:50:49;;;;;;;24.07;15.35;;;;;;;10.42;65.81;100964.69;1776282;79;25920;-60
2021/09/04 21:53:42;;;;;;;25.02;14.60;;;;;;;10.38;66.09;100960.94;1781641;79;26493;-61
2021/09/04 21:56:35;;;;;;;23.45;14.25;;;;;;;10.35;66.61;100964.25;1777282;79;25766;-62
2021/09/04 21:59:28;;;;;;;21.85;14.43;;;;;;;10.24;66.63;100960.82;1776790;79;25920;-62
2021/09/04 22:02:21;;;;;;;25.60;17.05;;;;;;;10.19;66.82;100964.14;1777768;79;25720;-60
2021/09/04 22:23:29;;;;;;;24.72;16.30;;;;;;;10.07;67.34;100974.02;1669667;84;25970;-60
2021/09/04 22:25:56;;;;;;;22.87;14.85;;;;;;;10.02;67.56;100976.78;1661278;85;26196;-61
2021/09/04 22:28:22;;;;;;;21.82;14.93;;;;;;;9.99;67.12;100976.80;1691169;83;26370;-61
2021/09/04 22:30:49;;;;;;;22.82;14.87;;;;;;;9.96;67.62;100977.40;1671449;84;27494;-63
2021/09/04 22:33:15;;;;;;;28.98;17.00;;;;;;;9.95;67.76;100980.38;1678103;84;25954;-61
2021/09/04 22:35:42;;;;;;;21.75;15.20;;;;;;;9.90;67.90;100977.19;1685991;84;26499;-60
2021/09/04 22:38:09;;;;;;;20.95;14.60;;;;;;;9.86;67.88;100982.92;1685219;84;25828;-61
2021/09/04 22:40:49;;;;;;;51.20;27.77;;;;;;;9.81;68.01;100985.67;1684596;85;25820;-61
2021/09/04 22:43:26;;;;;;;28.27;15.68;;;;;;;9.76;68.23;100986.52;1685173;83;27581;-63
2021/09/04 22:45:54;;;;;;;21.65;12.20;;;;;;;9.72;68.26;100990.34;1682709;84;26464;-61
2021/09/04 23:02:43;;;;;;;18.67;10.43;;;;;;;9.52;68.37;101008.10;1772880;77;26058;-60
2021/09/04 23:05:11;;;;;;;17.92;10.10;;;;;;;9.48;68.36;101007.04;1790133;78;26448;-60
2021/09/04 23:07:37;;;;;;;18.87;10.68;;;;;;;9.46;68.51;101014.07;1787283;78;25868;-61
2021/09/04 23:10:05;;;;;;;17.67;11.48;;;;;;;9.43;68.37;101011.97;1781479;79;25855;-60
2021/09/04 23:12:32;;;;;;;17.15;11.05;;;;;;;9.41;68.20;101010.63;1778639;79;28083;-60
2021/09/04 23:14:59;;;;;;;19.42;10.82;;;;;;;9.39;68.39;101022.25;1786429;78;25656;-61
2021/09/04 23:17:26;;;;;;;17.02;10.35;;;;;;;9.35;68.53;101019.31;1789972;78;26348;-61
2021/09/04 23:19:54;;;;;;;20.00;10.68;;;;;;;9.34;68.66;101027.14;1781580;79;26321;-61
2021/09/04 23:22:21;;;;;;;16.85;10.68;;;;;;;9.30;68.65;101026.91;1796978;78;26432;-61
2021/09/04 23:24:48;;;;;;;18.75;11.03;;;;;;;9.28;68.53;101026.91;1796162;79;27480;-60
2021/09/04 23:33:00;;;;;;;18.50;10.68;;;;;;;9.26;69.21;101029.92;1714311;83;26434;-59
2021/09/04 23:35:27;;;;;;;17.62;10.68;;;;;;;9.24;69.08;101033.42;1709238;83;25788;-59
2021/09/04 23:37:53;;;;;;;21.65;11.38;;;;;;;9.24;69.35;101032.63;1714257;83;29833;-58
2021/09/04 23:40:20;;;;;;;23.02;11.25;;;;;;;9.21;69.24;101040.76;1712258;83;25856;-59
2021/09/04 23:42:46;;;;;;;18.55;11.50;;;;;;;9.20;69.26;101037.78;1710603;83;25795;-59
2021/09/04 23:45:13;;;;;;;22.58;11.65;;;;;;;9.18;69.41;101035.91;1712554;83;26453;-61
2021/09/04 23:47:40;;;;;;;21.42;11.70;;;;;;;9.15;69.29;101035.12;1715286;83;25976;-60
2021/09/04 23:50:09;;;;;;;21.25;10.95;;;;;;;9.13;69.20;101044.05;1718668;82;28660;-59
2021/09/04 23:52:35;;;;;;;19.67;11.88;;;;;;;9.10;69.12;101043.25;1719666;82;25845;-61
2021/09/04 23:55:03;;;;;;;19.82;11.25;;;;;;;9.06;69.13;101052.45;1716141;82;26377;-60
2021/09/04 23:57:30;;;;;;;17.85;11.50;;;;;;;9.05;69.36;101050.03;1718926;82;26256;-60
2021/09/04 23:59:56;;;;;;;21.37;11.25;;;;;;;9.03;69.24;101055.71;1714808;82;25761;-59
